Time;durP1;ratioP1;P1;durP2;ratioP2;P2;SDS_P1;SDS_P2;PMS_P1;PMS_P2;Temp;Humidity;BMP_temperature;BMP_pressure;BME280_temperature;BME280_humidity;BME280_pressure;Samples;Min_cycle;Max_cycle;Signal;HPM_P1;HPM_P2
2021/08/17 00:00:15;;;;;;;68.57;22.27;;;;;;;15.79;68.59;95416.66;4985930;28;20042;-69
2021/08/17 00:02:41;;;;;;;74.20;23.25;;;;;;;15.80;70.14;95449.63;4989928;28;20038;-69
2021/08/17 00:05:07;;;;;;;66.78;22.13;;;;;;;16.03;69.08;95437.44;4989448;28;20046;-69
2021/08/17 00:07:34;;;;;;;68.53;22.52;;;;;;;16.10;69.06;95437.66;4989290;28;20037;-69
2021/08/17 00:10:05;;;;;;;58.38;19.80;;;;;;;15.56;71.00;95461.78;4992002;28;20038;-69
2021/08/17 00:12:30;;;;;;;61.03;20.80;;;;;;;16.07;69.89;95492.00;4989155;28;20043;-69
2021/08/17 00:14:56;;;;;;;63.58;20.25;;;;;;;16.15;69.51;95502.97;4989360;28;20041;-68
2021/08/17 00:17:21;;;;;;;65.20;20.45;;;;;;;15.93;69.24;95451.25;4989272;28;20042;-69
2021/08/17 00:19:47;;;;;;;53.25;19.65;;;;;;;16.37;69.70;95516.00;4989580;28;20038;-69
2021/08/17 00:22:14;;;;;;;61.50;20.67;;;;;;;15.49;70.74;95437.38;4991728;28;20416;-69
2021/08/17 00:24:39;;;;;;;75.07;22.77;;;;;;;16.55;67.90;95449.50;4989905;28;20496;-69
2021/08/17 00:27:04;;;;;;;56.33;19.25;;;;;;;15.93;68.55;95419.06;4987482;28;20082;-69
2021/08/17 00:29:31;;;;;;;62.72;21.38;;;;;;;15.84;68.67;95380.81;4988404;28;20096;-69
2021/08/17 00:31:56;;;;;;;58.03;19.73;;;;;;;16.62;68.47;95495.38;4989220;28;20189;-69
2021/08/17 00:34:22;;;;;;;52.47;20.00;;;;;;;15.79;69.00;95430.06;4986757;28;20162;-69
2021/08/17 00:36:51;;;;;;;49.88;18.83;;;;;;;15.66;70.58;95433.03;4991069;28;20022;-69
2021/08/17 00:39:17;;;;;;;52.25;19.98;;;;;;;16.22;70.00;95495.16;4989306;28;20045;-69
2021/08/17 00:41:43;;;;;;;54.88;20.30;;;;;;;15.89;69.32;95428.88;4989226;28;20030;-69
2021/08/17 00:44:28;;;;;;;47.30;19.58;;;;;;;15.92;69.68;95419.38;4988344;28;20511;-69
2021/08/17 00:46:57;;;;;;;51.08;19.90;;;;;;;15.66;70.17;95419.63;4988677;28;20121;-69
2021/08/17 00:49:23;;;;;;;55.75;20.17;;;;;;;15.93;70.58;95483.44;4989110;28;20050;-69
2021/08/17 00:51:50;;;;;;;52.83;20.58;;;;;;;15.75;69.58;95431.06;4991295;28;20058;-69
2021/08/17 00:54:15;;;;;;;59.30;21.88;;;;;;;16.40;69.02;95493.09;4988157;28;20063;-69
2021/08/17 00:56:41;;;;;;;72.30;23.48;;;;;;;16.27;68.16;95433.22;4986723;28;20085;-69
2021/08/17 00:59:07;;;;;;;70.63;24.05;;;;;;;16.02;68.29;95392.94;4988347;28;20046;-69
2021/08/17 01:01:32;;;;;;;60.78;22.80;;;;;;;16.34;68.08;95484.47;5000228;28;20042;-69
2021/08/17 01:03:58;;;;;;;61.65;22.85;;;;;;;15.75;69.41;95439.88;5010861;28;20371;-69
2021/08/17 01:06:25;;;;;;;71.60;23.00;;;;;;;15.84;69.29;95451.31;5008270;28;20038;-69
2021/08/17 01:08:50;;;;;;;67.93;22.92;;;;;;;16.21;68.50;95416.53;5008630;28;20613;-69
2021/08/17 01:11:16;;;;;;;68.15;23.30;;;;;;;15.54;70.44;95426.47;5008805;28;20034;-69
2021/08/17 01:13:41;;;;;;;81.05;23.13;;;;;;;16.45;68.19;95433.81;4997780;28;20492;-69
2021/08/17 01:16:07;;;;;;;64.88;22.20;;;;;;;16.59;69.21;95463.84;4990747;28;20027;-70
2021/08/17 01:18:32;;;;;;;56.95;22.15;;;;;;;16.02;69.14;95438.53;4989075;28;20038;-70
2021/08/17 01:20:59;;;;;;;70.88;22.67;;;;;;;16.26;68.43;95410.19;4989185;28;20046;-70
2021/08/17 01:23:25;;;;;;;75.03;26.02;;;;;;;17.35;66.69;95500.81;4989040;28;20030;-69
2021/08/17 01:25:51;;;;;;;86.88;25.20;;;;;;;17.03;66.12;95467.56;4988421;28;20047;-70
2021/08/17 01:28:17;;;;;;;69.65;22.85;;;;;;;16.71;66.10;95412.00;4988636;28;20037;-70
2021/08/17 01:30:42;;;;;;;85.63;24.88;;;;;;;16.99;65.95;95450.53;4990877;28;20011;-70
2021/08/17 01:33:08;;;;;;;112.50;26.80;;;;;;;17.39;66.02;95498.22;4988965;28;20039;-69
2021/08/17 01:35:34;;;;;;;89.93;24.73;;;;;;;17.25;66.64;95465.50;4988595;28;20082;-71
2021/08/17 01:38:03;;;;;;;62.38;14.10;;;;;;;15.80;68.77;95476.44;4988484;28;20172;-70
2021/08/17 01:40:28;;;;;;;37.95;11.65;;;;;;;15.56;70.36;95510.06;4988994;28;20026;-70
2021/08/17 01:42:53;;;;;;;32.30;11.23;;;;;;;15.19;71.83;95497.50;4990568;28;20349;-69
2021/08/17 01:45:20;;;;;;;24.88;7.88;;;;;;;15.14;71.37;95527.16;4988416;28;20046;-71
2021/08/17 01:47:48;;;;;;;15.43;6.47;;;;;;;14.71;71.64;95528.91;4988261;28;20049;-71
2021/08/17 01:50:13;;;;;;;17.95;6.30;;;;;;;14.75;70.86;95521.03;4988748;28;20050;-70
2021/08/17 01:52:39;;;;;;;13.88;5.70;;;;;;;14.80;72.05;95563.72;4987710;28;20503;-73
2021/08/17 01:55:07;;;;;;;11.63;5.55;;;;;;;14.80;71.42;95553.00;4990888;28;20105;-72
2021/08/17 01:57:33;;;;;;;17.50;6.50;;;;;;;15.40;70.76;95578.72;4988536;28;20046;-71
2021/08/17 01:59:58;;;;;;;13.98;6.40;;;;;;;15.62;69.47;95593.00;4988412;28;20180;-73
2021/08/17 02:02:23;;;;;;;14.68;6.80;;;;;;;15.56;69.14;95578.97;4987112;28;20420;-73
2021/08/17 02:04:49;;;;;;;11.68;5.45;;;;;;;15.51;68.69;95569.22;4988154;28;20572;-73
2021/08/17 02:07:14;;;;;;;21.45;7.63;;;;;;;16.22;66.88;95564.94;4990795;28;20046;-72
2021/08/17 02:09:39;;;;;;;9.18;4.50;;;;;;;15.94;67.24;95567.41;4994474;28;20061;-73
2021/08/17 02:12:05;;;;;;;10.38;4.97;;;;;;;15.71;67.94;95542.78;4990950;28;20034;-73
2021/08/17 02:14:30;;;;;;;10.93;4.78;;;;;;;16.07;66.40;95567.13;5004868;23;20081;-71
2021/08/17 02:16:55;;;;;;;10.95;4.75;;;;;;;15.99;66.72;95567.97;4997740;28;20496;-70
2021/08/17 02:19:21;;;;;;;11.90;5.63;;;;;;;16.18;66.49;95564.06;5011695;28;20030;-70
2021/08/17 02:21:46;;;;;;;8.13;4.47;;;;;;;15.95;66.77;95590.41;5013420;28;20022;-70
2021/08/17 02:24:12;;;;;;;10.57;5.13;;;;;;;15.88;67.03;95601.69;5011282;28;20084;-70
2021/08/17 02:26:37;;;;;;;9.20;4.25;;;;;;;16.44;65.75;95596.81;5010744;28;20073;-70
2021/08/17 02:29:03;;;;;;;7.80;3.50;;;;;;;15.69;66.99;95607.47;5010961;28;20100;-70
2021/08/17 02:31:28;;;;;;;5.30;3.00;;;;;;;15.24;67.58;95593.78;5011135;28;20029;-70
2021/08/17 02:33:53;;;;;;;4.20;2.80;;;;;;;15.30;68.13;95603.22;5013089;28;20508;-71
2021/08/17 02:36:19;;;;;;;4.63;2.80;;;;;;;15.31;67.14;95602.91;5009256;28;20045;-70
2021/08/17 02:38:44;;;;;;;5.32;3.03;;;;;;;15.48;67.76;95620.03;5009949;28;20053;-72
2021/08/17 02:41:09;;;;;;;6.40;3.67;;;;;;;15.74;66.89;95601.13;5010691;28;20121;-69
2021/08/17 02:43:35;;;;;;;8.65;3.35;;;;;;;15.88;66.02;95608.94;5009610;28;20074;-70
2021/08/17 02:46:00;;;;;;;8.73;3.38;;;;;;;16.21;66.27;95619.75;5010713;28;20033;-70
2021/08/17 02:48:26;;;;;;;7.30;3.10;;;;;;;15.93;66.84;95630.22;5010944;28;20046;-70
2021/08/17 02:50:51;;;;;;;4.68;2.92;;;;;;;15.89;66.43;95613.19;5009495;28;20084;-70
2021/08/17 02:53:18;;;;;;;5.53;2.70;;;;;;;15.71;66.84;95628.59;5010862;28;20026;-70
2021/08/17 02:55:43;;;;;;;8.05;3.75;;;;;;;16.06;65.47;95613.84;5010312;28;20042;-70
2021/08/17 02:58:11;;;;;;;8.77;3.47;;;;;;;16.45;65.98;95629.81;5010988;28;20113;-70
2021/08/17 03:00:39;;;;;;;8.32;3.67;;;;;;;16.78;64.96;95636.00;5002688;28;20527;-70
2021/08/17 03:03:04;;;;;;;7.72;3.58;;;;;;;16.90;63.49;95616.47;5009348;28;20570;-70
2021/08/17 03:05:30;;;;;;;8.75;4.10;;;;;;;17.25;63.17;95626.81;5010332;28;20129;-70
2021/08/17 03:08:03;;;;;;;8.63;3.53;;;;;;;17.13;62.62;95633.75;5010257;28;20396;-70
2021/08/17 03:10:30;;;;;;;6.35;3.40;;;;;;;16.77;64.72;95630.97;5010557;28;20026;-71
2021/08/17 03:12:55;;;;;;;7.57;3.42;;;;;;;16.08;65.09;95641.16;5012479;28;20025;-70
2021/08/17 03:15:22;;;;;;;7.63;3.55;;;;;;;15.69;66.74;95630.81;5002096;28;20186;-71
2021/08/17 03:17:48;;;;;;;7.28;3.95;;;;;;;15.49;67.43;95626.94;5009022;28;20053;-70
2021/08/17 03:20:15;;;;;;;5.78;3.58;;;;;;;15.60;66.62;95642.34;5010508;28;20042;-71
2021/08/17 03:22:41;;;;;;;9.15;4.25;;;;;;;15.03;68.64;95653.44;5010626;28;20052;-71
2021/08/17 03:25:10;;;;;;;9.85;5.18;;;;;;;14.91;68.11;95631.09;5012123;28;20472;-71
2021/08/17 03:27:35;;;;;;;5.93;4.25;;;;;;;14.92;68.95;95646.06;5008659;28;20124;-71
2021/08/17 03:30:05;;;;;;;5.50;4.30;;;;;;;14.65;68.56;95636.53;5001206;28;20488;-71
2021/08/17 03:32:30;;;;;;;7.78;4.60;;;;;;;14.70;68.06;95621.06;5009690;28;20053;-71
2021/08/17 03:34:55;;;;;;;8.93;5.15;;;;;;;15.34;68.35;95668.47;5010191;28;20045;-70
2021/08/17 03:37:21;;;;;;;10.30;5.57;;;;;;;15.79;65.63;95617.03;5009821;28;20406;-70
2021/08/17 03:39:46;;;;;;;7.72;4.60;;;;;;;14.69;67.94;95599.94;5011987;28;20427;-70
2021/08/17 03:42:12;;;;;;;9.57;4.90;;;;;;;15.56;67.11;95678.97;5009874;28;20197;-70
2021/08/17 03:44:38;;;;;;;9.15;5.50;;;;;;;15.65;65.76;95635.25;5009326;28;20133;-70
2021/08/17 03:47:03;;;;;;;9.30;5.05;;;;;;;16.30;64.29;95650.78;5007846;28;20128;-70
2021/08/17 03:49:28;;;;;;;8.52;5.30;;;;;;;15.27;65.00;95603.88;5009477;28;20056;-70
2021/08/17 03:51:54;;;;;;;11.63;5.30;;;;;;;15.92;65.33;95661.63;5011836;28;20061;-69
2021/08/17 03:54:19;;;;;;;8.68;5.90;;;;;;;15.34;65.89;95633.63;5009246;28;20038;-70
2021/08/17 03:56:44;;;;;;;11.75;6.00;;;;;;;15.53;64.78;95601.84;5008934;28;20038;-69
2021/08/17 03:59:09;;;;;;;12.23;5.90;;;;;;;15.59;66.04;95648.03;5008983;28;20049;-69
2021/08/17 04:01:36;;;;;;;13.73;6.30;;;;;;;15.84;66.29;95660.56;5009324;28;20038;-69
2021/08/17 04:04:01;;;;;;;12.02;6.63;;;;;;;16.09;65.26;95669.56;5011339;28;20034;-70
2021/08/17 04:06:27;;;;;;;11.82;6.25;;;;;;;16.45;64.42;95668.19;5008898;28;20037;-69
2021/08/17 04:08:53;;;;;;;13.70;6.70;;;;;;;16.71;63.14;95653.75;5008794;28;20042;-69
2021/08/17 04:11:18;;;;;;;10.43;6.75;;;;;;;16.60;63.62;95688.31;5009023;28;20061;-69
2021/08/17 04:13:43;;;;;;;13.13;7.10;;;;;;;16.24;63.59;95624.47;5008775;28;20500;-69
2021/08/17 04:16:09;;;;;;;15.18;6.68;;;;;;;16.38;63.90;95665.28;5009457;28;20061;-70
2021/08/17 04:18:34;;;;;;;15.38;6.70;;;;;;;16.45;63.68;95641.34;5009584;28;20045;-70
2021/08/17 04:21:00;;;;;;;11.50;6.53;;;;;;;16.52;63.93;95667.66;5007922;28;20392;-71
2021/08/17 04:23:26;;;;;;;11.90;4.93;;;;;;;15.24;65.28;95609.88;5007800;28;20172;-69
2021/08/17 04:25:51;;;;;;;9.85;5.22;;;;;;;15.12;65.35;95593.69;5008898;28;20525;-69
2021/08/17 04:28:17;;;;;;;9.63;4.93;;;;;;;14.04;66.68;95484.81;5007640;28;20056;-71
2021/08/17 04:30:42;;;;;;;12.95;5.22;;;;;;;15.50;65.33;95664.16;5010196;28;20010;-70
2021/08/17 04:33:08;;;;;;;8.73;4.78;;;;;;;15.54;65.47;95691.91;5007299;28;20180;-70
2021/08/17 04:35:33;;;;;;;14.50;6.10;;;;;;;15.76;64.78;95626.50;5005926;28;20034;-74
2021/08/17 04:37:58;;;;;;;9.65;5.40;;;;;;;15.64;64.70;95614.91;5008891;28;20069;-73
2021/08/17 04:40:24;;;;;;;9.25;5.20;;;;;;;15.04;64.01;95573.84;5007566;28;20022;-76
2021/08/17 04:42:49;;;;;;;10.38;5.10;;;;;;;15.04;66.16;95668.41;5012056;28;20490;-71
2021/08/17 04:45:15;;;;;;;10.27;5.57;;;;;;;15.53;66.56;95735.13;5002218;28;20505;-71
2021/08/17 04:47:48;;;;;;;8.35;5.07;;;;;;;15.68;66.09;95726.59;5006838;28;20452;-68
2021/08/17 04:50:14;;;;;;;9.70;5.53;;;;;;;16.00;65.28;95725.16;5008579;28;20081;-66
2021/08/17 04:52:40;;;;;;;8.15;5.22;;;;;;;14.96;65.63;95634.41;5008209;28;20038;-68
2021/08/17 04:55:06;;;;;;;7.85;4.20;;;;;;;15.08;67.70;95698.03;5010441;28;20033;-68
2021/08/17 04:57:31;;;;;;;6.50;4.63;;;;;;;14.09;66.62;95524.00;5007880;28;20603;-68
2021/08/17 04:59:57;;;;;;;7.93;4.63;;;;;;;15.37;65.59;95694.66;5008096;28;20125;-68
2021/08/17 05:02:22;;;;;;;9.45;4.68;;;;;;;14.41;65.33;95522.66;5007977;28;20531;-67
2021/08/17 05:04:47;;;;;;;8.98;4.40;;;;;;;14.92;65.68;95696.97;5008187;28;20088;-67
2021/08/17 05:07:13;;;;;;;5.97;4.65;;;;;;;15.06;64.95;95639.41;5007117;28;20037;-67
2021/08/17 05:09:38;;;;;;;6.65;4.70;;;;;;;16.45;64.47;95739.91;5010420;28;20037;-67
2021/08/17 05:12:04;;;;;;;7.32;4.10;;;;;;;15.28;63.55;95634.94;5008005;28;20487;-67
2021/08/17 05:14:29;;;;;;;9.05;4.45;;;;;;;14.85;65.72;95617.09;5007316;28;20046;-67
2021/08/17 05:16:55;;;;;;;5.32;3.72;;;;;;;16.09;65.39;95754.66;5007635;28;20049;-67
2021/08/17 05:19:20;;;;;;;4.63;3.35;;;;;;;15.86;62.98;95665.59;5008331;28;20097;-67
2021/08/17 05:21:45;;;;;;;4.35;3.50;;;;;;;15.09;64.85;95678.94;5010270;28;20079;-67
2021/08/17 05:24:11;;;;;;;3.95;3.38;;;;;;;15.03;66.54;95727.66;5008285;28;20097;-66
2021/08/17 05:26:36;;;;;;;5.63;3.50;;;;;;;15.45;65.97;95768.09;5007832;28;20588;-66
2021/08/17 05:29:02;;;;;;;4.22;3.40;;;;;;;14.93;67.59;95766.28;5007340;28;20530;-67
2021/08/17 05:31:28;;;;;;;4.45;3.40;;;;;;;15.04;66.69;95743.41;5006505;28;20076;-63
2021/08/17 05:33:53;;;;;;;3.35;2.90;;;;;;;15.26;65.95;95763.13;5011058;28;20034;-81
2021/08/17 05:36:18;;;;;;;3.67;3.38;;;;;;;15.29;64.68;95722.25;5009362;28;20034;-76
2021/08/17 05:38:44;;;;;;;4.85;3.72;;;;;;;15.61;65.05;95771.88;5006204;28;20041;-81
2021/08/17 05:41:09;;;;;;;5.82;3.35;;;;;;;15.32;64.54;95692.16;5009675;28;20427;-82
2021/08/17 05:43:35;;;;;;;5.18;4.35;;;;;;;16.06;63.15;95715.03;5012138;28;20034;-80
2021/08/17 05:46:03;;;;;;;5.10;4.10;;;;;;;15.36;62.71;95693.09;5010185;28;20045;-74
2021/08/17 05:48:29;;;;;;;6.78;4.20;;;;;;;16.52;62.83;95759.75;5012956;28;20034;-79
2021/08/17 05:50:55;;;;;;;6.22;4.25;;;;;;;15.71;63.40;95763.47;5012213;28;20034;-81
2021/08/17 05:53:21;;;;;;;6.03;4.57;;;;;;;15.31;63.20;95747.66;5013400;28;20045;-78
2021/08/17 05:55:47;;;;;;;5.72;4.30;;;;;;;15.90;63.94;95787.25;5012388;28;20108;-75
2021/08/17 05:58:16;;;;;;;7.95;5.05;;;;;;;15.90;64.18;95797.97;5012775;28;20080;-74
2021/08/17 06:00:42;;;;;;;6.70;4.65;;;;;;;15.50;63.66;95731.19;5009295;28;20097;-70
2021/08/17 06:03:07;;;;;;;5.45;4.45;;;;;;;15.65;63.85;95755.94;5011011;28;20072;-72
2021/08/17 06:06:00;;;;;;;7.15;4.57;;;;;;;16.03;61.56;95769.38;5012365;28;20612;-80
2021/08/17 06:08:26;;;;;;;5.55;4.35;;;;;;;15.60;63.97;95784.47;5006828;28;20651;-73
2021/08/17 06:10:51;;;;;;;8.18;4.57;;;;;;;15.69;63.46;95795.19;5011689;28;20034;-72
2021/08/17 06:13:17;;;;;;;7.28;4.72;;;;;;;15.88;63.71;95797.53;5012312;28;20542;-68
2021/08/17 06:15:42;;;;;;;5.57;4.97;;;;;;;15.82;64.30;95796.13;5012506;28;20423;-72
2021/08/17 06:18:08;;;;;;;7.05;4.35;;;;;;;16.32;62.90;95782.78;5011541;28;20080;-71
2021/08/17 06:20:34;;;;;;;6.72;4.85;;;;;;;16.49;61.23;95802.59;5012296;28;20114;-75
2021/08/17 06:23:00;;;;;;;8.70;5.32;;;;;;;16.13;60.68;95805.78;5013273;28;20045;-76
2021/08/17 06:25:27;;;;;;;9.50;4.45;;;;;;;15.21;62.01;95739.94;5011053;28;20022;-75
2021/08/17 06:27:52;;;;;;;6.45;4.45;;;;;;;15.96;63.78;95801.25;5013746;28;20026;-74
2021/08/17 06:30:17;;;;;;;5.13;4.07;;;;;;;15.23;59.99;95747.66;5010766;28;20124;-72
2021/08/17 06:32:43;;;;;;;6.38;4.10;;;;;;;15.42;63.28;95809.75;5009820;28;20030;-70
2021/08/17 06:35:08;;;;;;;5.90;4.25;;;;;;;15.65;63.23;95807.66;5009363;28;20435;-77
2021/08/17 06:37:34;;;;;;;6.18;4.25;;;;;;;15.94;62.08;95796.22;5010969;28;20633;-74
2021/08/17 06:39:59;;;;;;;4.53;4.03;;;;;;;15.49;61.73;95822.66;5012955;28;20083;-71
2021/08/17 06:42:25;;;;;;;4.85;3.90;;;;;;;15.11;62.44;95764.38;5008553;28;20042;-71
2021/08/17 06:44:50;;;;;;;5.32;4.05;;;;;;;16.06;61.27;95819.69;5008730;28;20092;-70
2021/08/17 06:47:16;;;;;;;5.32;4.18;;;;;;;15.27;62.62;95823.66;5009890;28;20041;-70
2021/08/17 06:49:41;;;;;;;4.53;3.80;;;;;;;15.52;61.64;95782.59;5010821;28;20068;-70
2021/08/17 06:52:07;;;;;;;8.10;4.38;;;;;;;14.44;61.19;95696.00;5011327;28;20021;-70
2021/08/17 06:54:32;;;;;;;5.45;3.88;;;;;;;15.65;58.80;95812.25;5010429;28;20038;-69
2021/08/17 06:56:57;;;;;;;4.82;3.90;;;;;;;16.46;59.11;95804.03;5009793;28;20042;-69
2021/08/17 06:59:23;;;;;;;5.25;4.13;;;;;;;16.82;57.77;95751.66;5010056;28;20054;-70
2021/08/17 07:01:48;;;;;;;5.63;4.03;;;;;;;16.66;57.82;95797.13;5008753;28;20045;-70
2021/08/17 07:04:14;;;;;;;4.95;4.13;;;;;;;15.20;59.56;95809.91;5009160;28;20475;-71
2021/08/17 07:06:39;;;;;;;6.65;4.03;;;;;;;14.89;59.71;95735.88;5012074;28;20049;-70
2021/08/17 07:09:04;;;;;;;5.13;3.83;;;;;;;15.40;61.80;95800.44;5009320;28;20088;-67
2021/08/17 07:11:31;;;;;;;5.10;4.03;;;;;;;17.05;58.40;95828.16;5010191;28;20022;-68
2021/08/17 07:13:56;;;;;;;4.53;3.63;;;;;;;15.54;61.44;95827.88;5009689;28;20100;-66
2021/08/17 07:16:22;;;;;;;5.32;3.75;;;;;;;15.05;62.83;95754.94;5008553;28;20467;-66
2021/08/17 07:18:47;;;;;;;4.97;3.83;;;;;;;15.69;60.52;95760.34;5012062;28;20656;-65
2021/08/17 07:21:13;;;;;;;4.70;4.13;;;;;;;16.58;59.74;95820.25;5010110;28;20038;-66
2021/08/17 07:23:38;;;;;;;5.82;4.05;;;;;;;17.12;58.87;95742.41;5009554;28;20036;-65
2021/08/17 07:26:03;;;;;;;4.55;3.97;;;;;;;16.74;56.61;95790.16;5008963;28;20507;-66
2021/08/17 07:28:29;;;;;;;5.13;3.50;;;;;;;18.23;56.76;95831.47;5009989;28;20085;-66
2021/08/17 07:30:54;;;;;;;5.60;4.50;;;;;;;17.22;55.50;95804.94;5011218;28;20018;-67
2021/08/17 07:33:20;;;;;;;4.45;3.42;;;;;;;16.05;57.46;95788.59;5009444;28;20538;-67
2021/08/17 07:35:46;;;;;;;4.88;3.60;;;;;;;15.33;59.28;95809.75;5007775;28;20391;-66
2021/08/17 07:38:12;;;;;;;5.30;3.80;;;;;;;16.67;59.70;95773.72;5009947;28;20034;-67
2021/08/17 07:40:37;;;;;;;4.05;3.38;;;;;;;16.52;58.20;95826.09;5009511;28;20048;-67
2021/08/17 07:43:03;;;;;;;5.05;3.83;;;;;;;18.45;57.60;95836.41;5011549;28;20484;-66
2021/08/17 07:45:28;;;;;;;5.05;3.35;;;;;;;16.69;55.15;95842.13;5012937;28;20049;-66
2021/08/17 07:47:54;;;;;;;3.33;3.03;;;;;;;17.87;55.94;95811.44;5008778;28;20592;-66
2021/08/17 07:50:19;;;;;;;3.70;3.40;;;;;;;17.70;55.18;95814.28;5009526;28;20037;-66
2021/08/17 07:52:45;;;;;;;3.47;3.17;;;;;;;16.88;54.50;95837.13;5009520;28;20061;-67
2021/08/17 07:55:12;;;;;;;4.10;3.20;;;;;;;15.97;58.03;95838.53;5011566;28;20638;-67
2021/08/17 07:57:39;;;;;;;4.50;3.40;;;;;;;15.48;60.01;95846.00;5008100;28;20060;-66
2021/08/17 08:00:07;;;;;;;4.47;3.70;;;;;;;15.50;58.18;95843.00;5008985;28;20401;-67
2021/08/17 08:02:32;;;;;;;3.85;3.22;;;;;;;16.22;58.59;95834.16;5008850;28;20037;-66
2021/08/17 08:04:58;;;;;;;6.15;3.83;;;;;;;16.72;55.45;95820.00;5008825;28;20571;-67
2021/08/17 08:07:23;;;;;;;4.88;3.40;;;;;;;17.41;56.58;95842.91;5007602;28;20545;-67
2021/08/17 08:09:49;;;;;;;5.88;3.75;;;;;;;16.13;53.24;95824.56;5011150;28;20074;-67
2021/08/17 08:12:14;;;;;;;4.15;3.75;;;;;;;16.77;56.04;95835.16;5009202;28;20038;-66
2021/08/17 08:14:40;;;;;;;6.93;3.13;;;;;;;15.95;54.70;95821.16;5008689;28;20038;-66
2021/08/17 08:17:06;;;;;;;4.68;3.38;;;;;;;16.58;54.24;95833.66;5008531;28;20073;-66
2021/08/17 08:19:31;;;;;;;5.82;4.13;;;;;;;17.57;54.67;95830.41;5009003;28;20050;-66
2021/08/17 08:21:56;;;;;;;3.75;3.42;;;;;;;18.05;51.03;95847.81;5011102;28;20030;-66
2021/08/17 08:24:22;;;;;;;5.43;3.15;;;;;;;16.89;51.82;95827.19;5007734;28;20034;-66
2021/08/17 08:26:47;;;;;;;3.72;3.03;;;;;;;17.83;51.93;95840.16;5008378;28;20045;-66
2021/08/17 08:29:12;;;;;;;3.85;3.00;;;;;;;16.71;55.76;95834.56;5008840;28;20065;-67
2021/08/17 08:31:38;;;;;;;5.25;3.75;;;;;;;16.68;56.54;95837.84;5008194;28;20037;-66
2021/08/17 08:34:04;;;;;;;4.45;3.42;;;;;;;15.88;55.03;95820.88;5010317;28;20033;-66
2021/08/17 08:36:29;;;;;;;4.53;3.53;;;;;;;17.27;53.26;95820.88;5006654;28;20034;-66
2021/08/17 08:38:55;;;;;;;3.90;3.47;;;;;;;16.23;55.13;95803.53;5008624;28;20037;-66
2021/08/17 08:41:21;;;;;;;6.40;3.53;;;;;;;16.36;58.58;95823.19;5008722;28;20082;-66
2021/08/17 08:43:47;;;;;;;5.05;3.45;;;;;;;16.80;54.50;95840.66;5008587;28;20029;-66
2021/08/17 08:46:20;;;;;;;4.25;3.30;;;;;;;16.23;55.17;95843.00;5009394;28;20026;-66
2021/08/17 08:48:50;;;;;;;5.13;3.42;;;;;;;16.34;57.14;95828.09;5008962;28;20467;-65
2021/08/17 08:51:17;;;;;;;4.45;3.70;;;;;;;16.18;55.70;95835.91;5008843;28;20099;-65
2021/08/17 08:53:43;;;;;;;4.45;3.65;;;;;;;16.08;55.46;95831.69;5008595;28;20042;-66
2021/08/17 08:56:09;;;;;;;7.25;3.85;;;;;;;16.47;54.17;95840.50;5008314;28;20040;-65
2021/08/17 08:58:35;;;;;;;5.53;3.58;;;;;;;16.72;53.81;95851.47;5008711;28;20041;-66
2021/08/17 09:01:00;;;;;;;5.88;3.50;;;;;;;17.19;53.34;95845.91;5010039;28;20028;-64
2021/08/17 09:03:49;;;;;;;3.75;3.20;;;;;;;18.81;56.97;95821.34;5006877;28;20038;-65
2021/08/17 09:06:29;;;;;;;4.90;3.90;;;;;;;18.44;52.68;95832.13;5008194;28;20452;-65
2021/08/17 09:09:03;;;;;;;6.72;3.97;;;;;;;19.20;46.91;95836.00;5008125;28;20107;-65
2021/08/17 09:11:29;;;;;;;5.32;3.35;;;;;;;18.15;50.90;95836.59;5008376;28;20050;-65
2021/08/17 09:13:54;;;;;;;4.05;3.55;;;;;;;17.60;51.67;95813.56;5008348;28;20188;-65
2021/08/17 09:16:29;;;;;;;5.25;3.42;;;;;;;18.80;48.94;95839.44;5008810;28;20026;-65
2021/08/17 09:18:55;;;;;;;4.60;4.03;;;;;;;18.35;47.68;95810.69;5014645;28;20037;-65
2021/08/17 09:21:38;;;;;;;4.07;3.30;;;;;;;17.32;49.54;95839.50;5012441;28;20412;-65
2021/08/17 09:24:30;;;;;;;10.57;3.80;;;;;;;18.28;51.94;95837.41;5012621;28;20057;-65
2021/08/17 09:27:00;;;;;;;3.63;3.27;;;;;;;18.55;54.00;95830.56;5011684;28;20050;-65
2021/08/17 09:29:32;;;;;;;3.97;3.40;;;;;;;18.12;47.59;95845.38;5011123;28;20176;-65
2021/08/17 09:32:01;;;;;;;3.10;2.80;;;;;;;17.79;48.78;95821.19;5011364;28;20129;-65
2021/08/17 09:34:32;;;;;;;4.25;3.33;;;;;;;19.52;47.32;95822.59;5011948;28;20018;-65
2021/08/17 09:37:01;;;;;;;4.15;3.75;;;;;;;18.41;50.94;95825.50;5013616;28;20392;-64
2021/08/17 09:39:34;;;;;;;5.25;3.65;;;;;;;18.61;47.97;95828.41;5012134;28;20038;-65
2021/08/17 09:42:29;;;;;;;3.88;3.13;;;;;;;18.98;48.08;95815.69;5012025;28;20372;-64
2021/08/17 09:45:07;;;;;;;5.55;3.70;;;;;;;19.22;47.70;95812.94;5006961;28;20038;-64
2021/08/17 09:47:35;;;;;;;4.55;3.25;;;;;;;21.02;41.54;95800.78;5010672;28;20488;-64
2021/08/17 09:50:17;;;;;;;4.20;3.63;;;;;;;21.42;41.04;95801.63;5011894;28;20066;-64
2021/08/17 09:52:42;;;;;;;3.53;3.05;;;;;;;19.97;42.15;95769.06;5010386;28;20601;-65
2021/08/17 09:55:17;;;;;;;4.93;3.17;;;;;;;19.78;45.78;95787.84;5012497;28;20026;-65
2021/08/17 09:57:43;;;;;;;4.95;3.28;;;;;;;19.51;46.36;95786.75;5011981;28;20045;-65
2021/08/17 10:00:14;;;;;;;3.63;3.13;;;;;;;20.12;43.69;95780.22;5011156;28;20123;-65
2021/08/17 10:02:42;;;;;;;4.10;3.67;;;;;;;19.84;43.80;95785.69;5019166;28;20044;-65
2021/08/17 10:05:08;;;;;;;4.80;3.30;;;;;;;19.54;43.47;95788.72;5011481;28;20351;-65
2021/08/17 10:07:34;;;;;;;4.35;3.40;;;;;;;20.27;45.85;95782.13;5009421;28;20034;-65
2021/08/17 10:10:00;;;;;;;4.82;3.67;;;;;;;19.33;43.76;95774.69;5011813;28;20548;-63
2021/08/17 10:12:25;;;;;;;3.60;2.95;;;;;;;19.37;45.59;95764.78;5011393;28;20038;-63
2021/08/17 10:14:50;;;;;;;3.63;3.13;;;;;;;19.25;44.23;95775.63;5011131;28;20065;-64
2021/08/17 10:17:16;;;;;;;3.92;3.13;;;;;;;18.63;44.93;95775.78;5009982;28;20566;-64
2021/08/17 10:19:44;;;;;;;3.97;3.33;;;;;;;19.36;44.85;95764.00;5009985;28;20057;-63
2021/08/17 10:22:10;;;;;;;6.97;3.75;;;;;;;19.23;43.79;95770.56;5013174;28;20627;-64
2021/08/17 10:24:40;;;;;;;4.95;3.30;;;;;;;19.52;43.64;95768.63;5009992;28;20237;-64
2021/08/17 10:27:30;;;;;;;3.85;3.42;;;;;;;19.92;41.58;95760.44;5010270;28;20066;-64
2021/08/17 10:30:02;;;;;;;4.03;3.30;;;;;;;19.80;41.60;95761.28;4998830;28;20058;-64
2021/08/17 10:32:37;;;;;;;3.85;2.95;;;;;;;19.78;41.70;95766.25;5002489;28;20045;-65
2021/08/17 10:35:03;;;;;;;3.80;3.40;;;;;;;21.07;40.60;95752.97;5010635;28;20046;-64
2021/08/17 10:37:29;;;;;;;5.32;3.90;;;;;;;19.82;40.67;95750.94;5010354;28;20080;-64
2021/08/17 10:39:54;;;;;;;5.93;3.58;;;;;;;21.47;39.61;95747.19;5012941;28;20026;-64
2021/08/17 10:42:25;;;;;;;6.05;4.22;;;;;;;21.00;41.10;95740.88;5010550;28;20105;-64
2021/08/17 10:44:52;;;;;;;5.18;3.75;;;;;;;20.39;42.59;95751.50;5010812;28;20164;-64
2021/08/17 10:47:34;;;;;;;3.65;3.20;;;;;;;21.02;41.76;95735.88;5009702;28;20381;-65
2021/08/17 10:50:01;;;;;;;4.82;3.67;;;;;;;20.69;40.55;95733.66;5009298;28;20041;-65
2021/08/17 10:52:32;;;;;;;4.03;3.60;;;;;;;20.49;41.43;95735.56;5010669;28;20097;-65
2021/08/17 10:55:20;;;;;;;4.63;4.05;;;;;;;22.08;41.31;95737.41;5012412;28;20026;-64
2021/08/17 10:57:57;;;;;;;3.80;3.40;;;;;;;19.92;42.21;95736.91;5010532;28;20069;-65
2021/08/17 11:00:47;;;;;;;3.70;3.40;;;;;;;19.37;42.81;95740.50;5008750;28;20084;-64
2021/08/17 11:03:14;;;;;;;4.15;2.97;;;;;;;19.81;41.93;95745.88;5009963;28;20396;-65
2021/08/17 11:05:53;;;;;;;4.05;3.60;;;;;;;21.13;39.93;95738.00;5008711;28;20030;-65
2021/08/17 11:08:31;;;;;;;6.30;3.83;;;;;;;21.86;38.35;95734.34;5010253;28;20468;-65
2021/08/17 11:11:00;;;;;;;3.88;3.50;;;;;;;23.24;36.35;95729.34;5010410;28;20046;-65
2021/08/17 11:13:26;;;;;;;4.50;3.08;;;;;;;23.32;35.63;95720.13;5010072;28;20030;-66
2021/08/17 11:16:11;;;;;;;3.75;3.17;;;;;;;22.81;37.18;95722.59;5011002;28;20045;-65
2021/08/17 11:18:51;;;;;;;4.05;3.40;;;;;;;21.39;39.07;95738.16;5009939;28;20032;-66
2021/08/17 11:21:30;;;;;;;3.38;3.00;;;;;;;21.36;38.74;95721.88;5010206;28;20462;-65
2021/08/17 11:24:28;;;;;;;3.97;3.25;;;;;;;21.89;37.41;95717.38;5008438;28;20092;-65
2021/08/17 11:27:01;;;;;;;4.03;2.95;;;;;;;21.06;40.34;95724.34;5004707;28;20100;-66
2021/08/17 11:29:28;;;;;;;5.40;2.88;;;;;;;21.12;39.72;95731.81;5009852;28;20038;-65